Darstellungsparameter: Aktuell verwendete Einstellungen:
Skalierung der Graphiken ... ?
xyx+y,   Skalierungsfaktor:      Skalierung: Modus: x, Faktor: 1
Darstellungszeitraum ... ?
Vom - - bis: - -   Zeitraum: 22.03.2010 - 24.03.2010
Min/Max/Avg-Anzeige ... ?
Zeige MMA aktuell
Zeige MMA Monat
Zeige MMA alles
Zeige --A aktuell
Zeige --A Monat
Zeige --A alles
Keine MMA-Anzeige
MMA:
Average (ber die Originaldaten)
MMA-Basis: 22.03.2010 - 24.03.2010
Quicknavigation für Darstellung... ?
Tage:      1T, 2T, 3T, 5T -1T -2T -3T -5T +1T +2T +3T +5T
Wochen: 1W, 2W, 3W -1W -2W -3W +1W +2W +3W
Monate: 1M, 3M, 6M -1M -3M -6M +1M +3M +6M
Jahre:    1J, 3J, 5J, 10J -1J -3J -5J -10J +1J +3J +5J +10J
Nutze für die Darstellung ... ?
Originaldaten oder Mittelwerte auf ...
Stundenbasis Tagesbasis Wochenbasis
Monatsbasis Jahresbasis      Datenbasis: Original-Daten
Darstellen als:
Statistik (Auto) Statistik J:M      Darstellung:
Zur Graphik,    zurück zur Übersicht aller Sensoren.
 
Tabellarische Datenbersicht: ?
 
Sensor: Nr:Datum:Temp:Abs-Feuchte:Windchill:Wind:
Aussen-T/F 1 22-03-2010 00:05:04 8.5 C 7.68 g/m*3 8.5 C 0 km/h
2 22-03-2010 00:17:04 8.5 C 7.68 g/m*3 8.5 C 0 km/h
3 22-03-2010 00:29:04 8.4 C 7.63 g/m*3 8.4 C 0 km/h
4 22-03-2010 00:41:04 8.3 C 7.67 g/m*3 8.3 C 0 km/h
5 22-03-2010 00:53:04 8.3 C 7.67 g/m*3 8.3 C 0 km/h
6 22-03-2010 01:05:04 8.3 C 7.67 g/m*3 8.3 C 0 km/h
7 22-03-2010 01:17:04 8.2 C 7.62 g/m*3 8.2 C 0 km/h
8 22-03-2010 01:29:04 8.2 C 7.62 g/m*3 8.2 C 0 km/h
9 22-03-2010 01:41:04 8.3 C 7.75 g/m*3 8.3 C 0 km/h
10 22-03-2010 01:53:04 8.3 C 7.75 g/m*3 8.3 C 0 km/h
11 22-03-2010 02:05:04 8.4 C 7.8 g/m*3 8.4 C 0 km/h
12 22-03-2010 02:17:04 8.2 C 7.7 g/m*3 8.2 C 0 km/h
13 22-03-2010 02:29:04 8.2 C 7.7 g/m*3 8.2 C 0 km/h
14 22-03-2010 02:41:04 8.3 C 7.75 g/m*3 8.3 C 0 km/h
15 22-03-2010 02:53:04 8.4 C 7.8 g/m*3 8.4 C 0 km/h
16 22-03-2010 03:05:04 8.4 C 7.8 g/m*3 8.4 C 0 km/h
17 22-03-2010 03:17:04 8.4 C 7.8 g/m*3 8.4 C 0 km/h
18 22-03-2010 03:29:04 8.4 C 7.8 g/m*3 8.4 C 0 km/h
19 22-03-2010 03:41:04 8.4 C 7.8 g/m*3 8.4 C 0 km/h
20 22-03-2010 03:53:04 8.4 C 7.8 g/m*3 8.4 C 0 km/h
21 22-03-2010 04:05:05 8.4 C 7.8 g/m*3 8.4 C 0 km/h
22 22-03-2010 04:17:05 8.4 C 7.8 g/m*3 8.4 C 0 km/h
23 22-03-2010 04:29:05 8.3 C 7.75 g/m*3 8.3 C 0 km/h
24 22-03-2010 04:41:05 8.2 C 7.7 g/m*3 8.2 C 0 km/h
25 22-03-2010 04:53:05 8.1 C 7.66 g/m*3 8.1 C 0 km/h
Sensor: Nr:Datum:Temp:Abs-Feuchte:Windchill:Wind:
Aussen-T/F 26 22-03-2010 05:05:05 8.1 C 7.66 g/m*3 8.1 C 0 km/h
27 22-03-2010 05:17:05 8.2 C 7.7 g/m*3 8.2 C 0 km/h
28 22-03-2010 05:29:05 8.2 C 7.7 g/m*3 8.2 C 0 km/h
29 22-03-2010 05:41:05 8.1 C 7.66 g/m*3 8.1 C 0 km/h
30 22-03-2010 05:53:01 8.1 C 7.66 g/m*3 8.1 C 0 km/h
31 22-03-2010 06:05:01 8.2 C 7.7 g/m*3 8.2 C 0 km/h
32 22-03-2010 06:17:02 8.2 C 7.7 g/m*3 8.2 C 0 km/h
33 22-03-2010 06:29:02 8.2 C 7.7 g/m*3 8.2 C 0 km/h
34 22-03-2010 06:41:01 8.1 C 7.66 g/m*3 8.1 C 0 km/h
35 22-03-2010 06:53:02 8.1 C 7.66 g/m*3 8.1 C 0 km/h
36 22-03-2010 07:05:01 8.2 C 7.7 g/m*3 8.2 C 0 km/h
37 22-03-2010 07:17:02 8.2 C 7.7 g/m*3 8.2 C 0 km/h
38 22-03-2010 07:29:02 8.3 C 7.84 g/m*3 8.3 C 0 km/h
39 22-03-2010 07:41:01 8.4 C 7.89 g/m*3 8.4 C 0 km/h
40 22-03-2010 07:53:01 8.5 C 7.94 g/m*3 8.5 C 0 km/h
41 22-03-2010 08:05:01 8.6 C 7.99 g/m*3 8.6 C 0 km/h
42 22-03-2010 08:17:02 8.8 C 8.09 g/m*3 8.8 C 0 km/h
43 22-03-2010 08:29:02 8.8 C 8.01 g/m*3 8.8 C 0 km/h
44 22-03-2010 08:41:01 8.9 C 8.06 g/m*3 8.9 C 0 km/h
45 22-03-2010 08:53:02 8.9 C 8.06 g/m*3 8.9 C 0 km/h
46 22-03-2010 09:05:01 8.9 C 7.97 g/m*3 8.9 C 0 km/h
47 22-03-2010 09:17:02 9 C 7.93 g/m*3 9 C 0 km/h
48 22-03-2010 09:29:02 9 C 7.93 g/m*3 9 C 0 km/h
49 22-03-2010 09:41:02 9.2 C 7.95 g/m*3 9.2 C 0 km/h
50 22-03-2010 09:53:02 9.3 C 8 g/m*3 9.3 C 0 km/h
Sensor: Nr:Datum:Temp:Abs-Feuchte:Windchill:Wind:
Aussen-T/F 51 22-03-2010 10:05:03 9.6 C 8.06 g/m*3 9.6 C 0 km/h
52 22-03-2010 10:17:02 10 C 8.08 g/m*3 10 C 0 km/h
53 22-03-2010 10:29:02 9.9 C 8.03 g/m*3 9.9 C 0 km/h
54 22-03-2010 10:41:02 9.5 C 7.65 g/m*3 9.5 C 0 km/h
55 22-03-2010 10:53:02 9.4 C 7.69 g/m*3 9.4 C 0 km/h
56 22-03-2010 11:05:02 9.5 C 7.92 g/m*3 9.5 C 0 km/h
57 22-03-2010 11:17:01 9.5 C 7.92 g/m*3 9.5 C 0 km/h
58 22-03-2010 11:29:01 9.5 C 7.83 g/m*3 9.5 C 0 km/h
59 22-03-2010 11:41:02 9.7 C 7.74 g/m*3 9.7 C 0 km/h
60 22-03-2010 11:53:02 10.2 C 7.8 g/m*3 10.2 C 0 km/h
61 22-03-2010 12:05:02 10.6 C 7.81 g/m*3 10.6 C 0 km/h
62 22-03-2010 12:17:01 10.7 C 7.76 g/m*3 10.7 C 0 km/h
63 22-03-2010 12:29:01 11 C 7.61 g/m*3 11 C 0 km/h
64 22-03-2010 12:41:02 11.1 C 7.45 g/m*3 11.1 C 0 km/h
65 22-03-2010 12:53:02 11.4 C 7.39 g/m*3 11.4 C 0 km/h
66 22-03-2010 13:05:02 11.5 C 7.23 g/m*3 11.5 C 0 km/h
67 22-03-2010 13:17:01 12.1 C 7.18 g/m*3 12.1 C 0 km/h
68 22-03-2010 13:29:01 12.4 C 6.66 g/m*3 12.4 C 0 km/h
69 22-03-2010 13:41:02 12.6 C 6.42 g/m*3 12.6 C 0 km/h
70 22-03-2010 13:53:01 12.6 C 6.31 g/m*3 12.6 C 0 km/h
71 22-03-2010 14:05:02 13.3 C 6.47 g/m*3 13.3 C 0 km/h
72 22-03-2010 14:17:02 14.2 C 6.11 g/m*3 14.2 C 0 km/h
73 22-03-2010 14:29:02 14.2 C 5.86 g/m*3 14.2 C 0 km/h
74 22-03-2010 14:41:02 14.5 C 5.72 g/m*3 14.5 C 0 km/h
75 22-03-2010 14:53:01 14.6 C 5.51 g/m*3 14.6 C 0 km/h
Sensor: Nr:Datum:Temp:Abs-Feuchte:Windchill:Wind:
Aussen-T/F 76 22-03-2010 15:05:02 14.2 C 5.49 g/m*3 14.2 C 0 km/h
77 22-03-2010 15:17:02 14 C 5.43 g/m*3 14 C 0 km/h
78 22-03-2010 15:29:02 14 C 5.31 g/m*3 14 C 0 km/h
79 22-03-2010 15:41:01 14.6 C 5.51 g/m*3 14.6 C 0 km/h
80 22-03-2010 15:53:02 14.9 C 5.23 g/m*3 14.9 C 0 km/h
81 22-03-2010 16:05:01 14.4 C 5.07 g/m*3 14.4 C 0 km/h
82 22-03-2010 16:17:02 14.3 C 5.28 g/m*3 14.3 C 0 km/h
83 22-03-2010 16:29:02 14.5 C 5.1 g/m*3 14.5 C 0 km/h
84 22-03-2010 16:41:01 15.2 C 5.32 g/m*3 15.2 C 0 km/h
85 22-03-2010 16:53:03 15.2 C 5.45 g/m*3 15.2 C 0 km/h
86 22-03-2010 17:05:02 14.9 C 5.35 g/m*3 14.9 C 0 km/h
87 22-03-2010 17:17:02 14.2 C 5.01 g/m*3 14.2 C 0 km/h
88 22-03-2010 17:29:02 13.9 C 4.8 g/m*3 13.9 C 0 km/h
89 22-03-2010 17:41:02 13.4 C 4.77 g/m*3 13.4 C 0 km/h
90 22-03-2010 17:53:02 13.2 C 4.82 g/m*3 13.2 C 0 km/h
91 22-03-2010 18:05:01 13 C 4.88 g/m*3 13 C 0 km/h
92 22-03-2010 18:17:02 12.9 C 5.3 g/m*3 12.9 C 0 km/h
93 22-03-2010 18:29:02 12.4 C 5.35 g/m*3 12.4 C 0 km/h
94 22-03-2010 18:41:02 11.8 C 5.58 g/m*3 11.8 C 0 km/h
95 22-03-2010 18:53:02 11.3 C 5.61 g/m*3 11.3 C 0 km/h
96 22-03-2010 19:05:01 10.5 C 5.72 g/m*3 10.5 C 0 km/h
97 22-03-2010 19:17:01 10 C 5.64 g/m*3 10 C 0 km/h
98 22-03-2010 19:29:01 9.7 C 5.72 g/m*3 9.7 C 0 km/h
99 22-03-2010 19:41:02 9.5 C 5.83 g/m*3 9.5 C 0 km/h
100 22-03-2010 19:53:02 9.2 C 5.8 g/m*3 9.2 C 0 km/h
Sensor: Nr:Datum:Temp:Abs-Feuchte:Windchill:Wind:
Aussen-T/F 101 22-03-2010 20:05:02 9 C 5.99 g/m*3 9 C 0 km/h
102 22-03-2010 20:17:02 8.7 C 6.14 g/m*3 8.7 C 0 km/h
103 22-03-2010 20:29:02 8.7 C 6.23 g/m*3 8.7 C 0 km/h
104 22-03-2010 20:41:02 8.5 C 6.15 g/m*3 8.5 C 0 km/h
105 22-03-2010 20:53:02 8.3 C 6.07 g/m*3 8.3 C 0 km/h
106 22-03-2010 21:05:02 8.1 C 6.07 g/m*3 8.1 C 0 km/h
107 22-03-2010 21:17:02 7.8 C 6.12 g/m*3 7.8 C 0 km/h
108 22-03-2010 21:29:02 7.4 C 6.04 g/m*3 7.4 C 0 km/h
109 22-03-2010 21:41:02 7.3 C 6.08 g/m*3 7.3 C 0 km/h
110 22-03-2010 21:53:02 7.1 C 6.08 g/m*3 7.1 C 0 km/h
111 22-03-2010 22:05:02 6.9 C 6.08 g/m*3 6.9 C 0 km/h
112 22-03-2010 22:17:02 6.6 C 5.96 g/m*3 6.6 C 0 km/h
113 22-03-2010 22:29:02 6.5 C 6 g/m*3 6.5 C 0 km/h
114 22-03-2010 22:41:02 6.2 C 5.88 g/m*3 6.2 C 0 km/h
115 22-03-2010 22:54:02 6 C 5.88 g/m*3 6 C 0 km/h
116 22-03-2010 23:06:02 6 C 5.95 g/m*3 6 C 0 km/h
117 22-03-2010 23:18:03 5.7 C 5.91 g/m*3 5.7 C 0 km/h
118 22-03-2010 23:30:03 5.6 C 5.87 g/m*3 5.6 C 0 km/h
119 22-03-2010 23:42:03 5.6 C 5.94 g/m*3 5.6 C 0 km/h
120 22-03-2010 23:54:03 5.4 C 5.86 g/m*3 5.4 C 0 km/h
121 23-03-2010 00:06:03 5.2 C 5.78 g/m*3 5.2 C 0 km/h
122 23-03-2010 00:18:03 5 C 5.78 g/m*3 5 C 0 km/h
123 23-03-2010 00:30:03 5 C 5.78 g/m*3 5 C 0 km/h
124 23-03-2010 00:42:03 4.8 C 5.83 g/m*3 4.8 C 0 km/h
125 23-03-2010 00:54:03 4.6 C 5.76 g/m*3 4.6 C 0 km/h
Sensor: Nr:Datum:Temp:Abs-Feuchte:Windchill:Wind:
Aussen-T/F 126 23-03-2010 01:06:03 4.4 C 5.68 g/m*3 4.4 C 0 km/h
127 23-03-2010 01:18:03 4.3 C 5.64 g/m*3 4.3 C 0 km/h
128 23-03-2010 01:30:03 4.3 C 5.71 g/m*3 4.3 C 0 km/h
129 23-03-2010 01:42:03 4.2 C 5.67 g/m*3 4.2 C 0 km/h
130 23-03-2010 01:54:03 4.1 C 5.63 g/m*3 4.1 C 0 km/h
131 23-03-2010 02:06:03 4 C 5.59 g/m*3 4 C 0 km/h
132 23-03-2010 02:18:03 3.9 C 5.62 g/m*3 3.9 C 0 km/h
133 23-03-2010 02:30:03 3.7 C 5.55 g/m*3 3.7 C 0 km/h
134 23-03-2010 02:42:03 3.6 C 5.57 g/m*3 3.6 C 0 km/h
135 23-03-2010 02:54:03 3.5 C 5.53 g/m*3 3.5 C 0 km/h
136 23-03-2010 03:06:03 3.4 C 5.56 g/m*3 3.4 C 0 km/h
137 23-03-2010 03:18:04 3.3 C 5.52 g/m*3 3.3 C 0 km/h
138 23-03-2010 03:30:04 3.2 C 5.48 g/m*3 3.2 C 0 km/h
139 23-03-2010 03:42:04 3.1 C 5.45 g/m*3 3.1 C 0 km/h
140 23-03-2010 03:54:04 2.9 C 5.43 g/m*3 2.9 C 0 km/h
141 23-03-2010 04:06:04 2.9 C 5.43 g/m*3 2.9 C 0 km/h
142 23-03-2010 04:18:04 2.7 C 5.3 g/m*3 2.7 C 0 km/h
143 23-03-2010 04:30:04 2.6 C 5.27 g/m*3 2.6 C 0 km/h
144 23-03-2010 04:42:04 2.5 C 5.29 g/m*3 2.5 C 0 km/h
145 23-03-2010 04:54:04 2.4 C 5.25 g/m*3 2.4 C 0 km/h
146 23-03-2010 05:06:04 2.4 C 5.25 g/m*3 2.4 C 0 km/h
147 23-03-2010 05:18:04 2.4 C 5.25 g/m*3 2.4 C 0 km/h
148 23-03-2010 05:30:04 2.3 C 5.22 g/m*3 2.3 C 0 km/h
149 23-03-2010 05:42:04 2.2 C 5.24 g/m*3 2.2 C 0 km/h
150 23-03-2010 05:54:04 2.1 C 5.2 g/m*3 2.1 C 0 km/h
Sensor: Nr:Datum:Temp:Abs-Feuchte:Windchill:Wind:
Aussen-T/F 151 23-03-2010 06:06:04 2.1 C 5.2 g/m*3 2.1 C 0 km/h
152 23-03-2010 06:18:04 2.1 C 5.2 g/m*3 2.1 C 0 km/h
153 23-03-2010 06:30:04 2.2 C 5.24 g/m*3 2.2 C 0 km/h
154 23-03-2010 06:42:04 2.4 C 5.31 g/m*3 2.4 C 0 km/h
155 23-03-2010 06:54:04 2.7 C 5.48 g/m*3 2.7 C 0 km/h
156 23-03-2010 07:06:02 2.7 C 5.48 g/m*3 2.7 C 0 km/h
157 23-03-2010 07:18:02 2.6 C 5.44 g/m*3 2.6 C 0 km/h
158 23-03-2010 07:30:02 2.7 C 5.48 g/m*3 2.7 C 0 km/h
159 23-03-2010 07:42:02 2.9 C 5.55 g/m*3 2.9 C 0 km/h
160 23-03-2010 07:54:02 3.4 C 5.74 g/m*3 3.4 C 0 km/h
161 23-03-2010 08:06:02 3.6 C 5.82 g/m*3 3.6 C 0 km/h
162 23-03-2010 08:18:01 3.8 C 5.83 g/m*3 3.8 C 0 km/h
163 23-03-2010 08:30:01 3.9 C 5.87 g/m*3 3.9 C 0 km/h
164 23-03-2010 08:42:02 4.1 C 5.95 g/m*3 4.1 C 0 km/h
165 23-03-2010 08:54:02 4.4 C 6.07 g/m*3 4.4 C 0 km/h
166 23-03-2010 09:06:01 4.8 C 6.24 g/m*3 4.8 C 0 km/h
167 23-03-2010 09:18:02 5.3 C 6.45 g/m*3 5.3 C 0 km/h
168 23-03-2010 09:30:02 5.9 C 6.71 g/m*3 5.9 C 0 km/h
169 23-03-2010 09:42:01 6.7 C 6.99 g/m*3 6.7 C 0 km/h
170 23-03-2010 09:54:03 7.3 C 6.95 g/m*3 7.3 C 0 km/h
171 23-03-2010 10:06:02 7.9 C 7.06 g/m*3 7.9 C 0 km/h
172 23-03-2010 10:18:02 8.4 C 6.96 g/m*3 8.4 C 0 km/h
173 23-03-2010 10:30:03 8.9 C 6.75 g/m*3 8.9 C 0 km/h
174 23-03-2010 10:42:02 9.3 C 6.56 g/m*3 9.3 C 0 km/h
175 23-03-2010 10:54:02 9.8 C 6.59 g/m*3 9.8 C 0 km/h
Sensor: Nr:Datum:Temp:Abs-Feuchte:Windchill:Wind:
Aussen-T/F 176 23-03-2010 11:06:01 10.3 C 6.61 g/m*3 10.3 C 0 km/h
177 23-03-2010 11:18:02 11.2 C 6.49 g/m*3 11.2 C 0 km/h
178 23-03-2010 11:30:02 11.8 C 6.42 g/m*3 11.8 C 0 km/h
179 23-03-2010 11:42:02 12.3 C 6.08 g/m*3 12.3 C 0 km/h
180 23-03-2010 11:54:02 12.8 C 5.94 g/m*3 12.8 C 0 km/h
181 23-03-2010 12:06:01 13.3 C 5.89 g/m*3 13.3 C 0 km/h
182 23-03-2010 12:18:01 13.7 C 5.92 g/m*3 13.7 C 0 km/h
183 23-03-2010 12:30:01 14 C 5.67 g/m*3 14 C 0 km/h
184 23-03-2010 12:42:02 13.9 C 5.87 g/m*3 13.9 C 0 km/h
185 23-03-2010 12:54:02 14.4 C 5.56 g/m*3 14.4 C 0 km/h
186 23-03-2010 13:06:02 14.9 C 5.23 g/m*3 14.9 C 0 km/h
187 23-03-2010 13:18:02 15 C 5.13 g/m*3 15 C 0 km/h
188 23-03-2010 13:30:02 15.6 C 5.59 g/m*3 15.6 C 0 km/h
189 23-03-2010 13:42:02 16.1 C 5.35 g/m*3 16.1 C 0 km/h
190 23-03-2010 13:54:01 16 C 5.31 g/m*3 16 C 0 km/h
191 23-03-2010 14:06:02 16.4 C 5.44 g/m*3 16.4 C 0 km/h
192 23-03-2010 14:18:01 16.8 C 5.43 g/m*3 16.8 C 0 km/h
193 23-03-2010 14:30:01 16.9 C 5.32 g/m*3 16.9 C 0 km/h
194 23-03-2010 14:42:01 17.2 C 5.27 g/m*3 17.2 C 0 km/h
195 23-03-2010 14:54:02 16.6 C 5.09 g/m*3 16.6 C 0 km/h
196 23-03-2010 15:06:02 17.1 C 5.24 g/m*3 17.1 C 0 km/h
197 23-03-2010 15:18:01 17.3 C 5.01 g/m*3 17.3 C 0 km/h
198 23-03-2010 15:30:01 17.2 C 5.13 g/m*3 17.2 C 0 km/h
199 23-03-2010 15:42:02 17.1 C 4.8 g/m*3 17.1 C 0 km/h
200 23-03-2010 15:54:02 17.4 C 5.19 g/m*3 17.4 C 0 km/h
Sensor: Nr:Datum:Temp:Abs-Feuchte:Windchill:Wind:
Aussen-T/F 201 23-03-2010 16:06:02 17.3 C 5.16 g/m*3 17.3 C 0 km/h
202 23-03-2010 16:18:01 16.7 C 5.12 g/m*3 16.7 C 0 km/h
203 23-03-2010 16:30:01 16.3 C 5.13 g/m*3 16.3 C 0 km/h
204 23-03-2010 16:42:02 16.3 C 5.13 g/m*3 16.3 C 0 km/h
205 23-03-2010 16:54:02 16.1 C 5.35 g/m*3 16.1 C 0 km/h
206 23-03-2010 17:06:02 16.2 C 5.38 g/m*3 16.2 C 0 km/h
207 23-03-2010 17:18:01 16.5 C 5.34 g/m*3 16.5 C 0 km/h
208 23-03-2010 17:30:01 15.8 C 5.38 g/m*3 15.8 C 0 km/h
209 23-03-2010 17:42:02 15.2 C 5.32 g/m*3 15.2 C 0 km/h
210 23-03-2010 17:54:02 14.8 C 5.45 g/m*3 14.8 C 0 km/h
211 23-03-2010 18:06:02 14.6 C 5.63 g/m*3 14.6 C 0 km/h
212 23-03-2010 18:18:02 14.2 C 5.62 g/m*3 14.2 C 0 km/h
213 23-03-2010 18:30:02 13.9 C 5.87 g/m*3 13.9 C 0 km/h
214 23-03-2010 18:42:02 13.5 C 6.08 g/m*3 13.5 C 0 km/h
215 23-03-2010 18:54:01 12.8 C 6.27 g/m*3 12.8 C 0 km/h
216 23-03-2010 19:06:02 12.1 C 6.22 g/m*3 12.1 C 0 km/h
217 23-03-2010 19:18:02 11.7 C 6.28 g/m*3 11.7 C 0 km/h
218 23-03-2010 19:30:02 11.4 C 6.26 g/m*3 11.4 C 0 km/h
219 23-03-2010 19:42:02 11.2 C 6.18 g/m*3 11.2 C 0 km/h
220 23-03-2010 19:54:02 10.8 C 6.23 g/m*3 10.8 C 0 km/h
221 23-03-2010 20:06:01 10.6 C 6.15 g/m*3 10.6 C 0 km/h
222 23-03-2010 20:18:02 10.4 C 6.17 g/m*3 10.4 C 0 km/h
223 23-03-2010 20:30:02 10.4 C 6.07 g/m*3 10.4 C 0 km/h
224 23-03-2010 20:42:01 10.3 C 6.03 g/m*3 10.3 C 0 km/h
225 23-03-2010 20:54:02 10.2 C 6.09 g/m*3 10.2 C 0 km/h
Sensor: Nr:Datum:Temp:Abs-Feuchte:Windchill:Wind:
Aussen-T/F 226 23-03-2010 21:06:01 10 C 6.11 g/m*3 10 C 0 km/h
227 23-03-2010 21:18:01 9.8 C 6.12 g/m*3 9.8 C 0 km/h
228 23-03-2010 21:30:01 9.6 C 6.23 g/m*3 9.6 C 0 km/h
229 23-03-2010 21:42:01 9.5 C 6.28 g/m*3 9.5 C 0 km/h
230 23-03-2010 21:54:02 9.4 C 6.24 g/m*3 9.4 C 0 km/h
231 23-03-2010 22:06:02 9.2 C 6.25 g/m*3 9.2 C 0 km/h
232 23-03-2010 22:18:02 9 C 6.26 g/m*3 9 C 0 km/h
233 23-03-2010 22:30:02 8.7 C 6.23 g/m*3 8.7 C 0 km/h
234 23-03-2010 22:42:02 8.6 C 6.27 g/m*3 8.6 C 0 km/h
235 23-03-2010 22:54:02 8.5 C 6.32 g/m*3 8.5 C 0 km/h
236 23-03-2010 23:06:02 8.4 C 6.28 g/m*3 8.4 C 0 km/h
237 23-03-2010 23:18:02 8.3 C 6.24 g/m*3 8.3 C 0 km/h
238 23-03-2010 23:30:02 8.2 C 6.2 g/m*3 8.2 C 0 km/h
239 23-03-2010 23:42:02 8.1 C 6.24 g/m*3 8.1 C 0 km/h
240 23-03-2010 23:54:01 8 C 6.2 g/m*3 8 C 0 km/h
241 24-03-2010 00:06:01 7.9 C 6.24 g/m*3 7.9 C 0 km/h
242 24-03-2010 00:18:01 7.8 C 6.28 g/m*3 7.8 C 0 km/h
243 24-03-2010 00:30:01 7.7 C 6.24 g/m*3 7.7 C 0 km/h
244 24-03-2010 00:42:02 7.6 C 6.2 g/m*3 7.6 C 0 km/h
245 24-03-2010 00:54:01 7.5 C 6.16 g/m*3 7.5 C 0 km/h
246 24-03-2010 01:06:02 7.5 C 6.24 g/m*3 7.5 C 0 km/h
247 24-03-2010 01:18:01 7.5 C 6.24 g/m*3 7.5 C 0 km/h
248 24-03-2010 01:30:01 7.3 C 6.16 g/m*3 7.3 C 0 km/h
249 24-03-2010 01:42:02 7.1 C 6.08 g/m*3 7.1 C 0 km/h
250 24-03-2010 01:54:02 6.9 C 6.08 g/m*3 6.9 C 0 km/h
Sensor: Nr:Datum:Temp:Abs-Feuchte:Windchill:Wind:
Aussen-T/F 251 24-03-2010 02:06:02 6.8 C 6.12 g/m*3 6.8 C 0 km/h
252 24-03-2010 02:18:01 6.7 C 6.15 g/m*3 6.7 C 0 km/h
253 24-03-2010 02:30:01 6.6 C 6.11 g/m*3 6.6 C 0 km/h
254 24-03-2010 02:42:02 6.4 C 6.04 g/m*3 6.4 C 0 km/h
255 24-03-2010 02:55:04 6.2 C 5.96 g/m*3 6.2 C 0 km/h
256 24-03-2010 03:07:04 6.2 C 6.03 g/m*3 6.2 C 0 km/h
257 24-03-2010 03:19:04 6.1 C 5.99 g/m*3 6.1 C 0 km/h
258 24-03-2010 03:31:02 5.8 C 5.95 g/m*3 5.8 C 0 km/h
259 24-03-2010 03:43:02 5.6 C 5.87 g/m*3 5.6 C 0 km/h
260 24-03-2010 03:55:02 5.7 C 5.98 g/m*3 5.7 C 0 km/h
261 24-03-2010 04:07:03 5.6 C 5.94 g/m*3 5.6 C 0 km/h
262 24-03-2010 04:19:02 5.3 C 5.82 g/m*3 5.3 C 0 km/h
263 24-03-2010 04:31:02 5.3 C 5.82 g/m*3 5.3 C 0 km/h
264 24-03-2010 04:43:02 5.2 C 5.85 g/m*3 5.2 C 0 km/h
265 24-03-2010 04:55:01 5.1 C 5.81 g/m*3 5.1 C 0 km/h
266 24-03-2010 05:07:02 4.9 C 5.81 g/m*3 4.9 C 0 km/h
267 24-03-2010 05:19:01 5 C 5.84 g/m*3 5 C 0 km/h
268 24-03-2010 05:31:01 5 C 5.84 g/m*3 5 C 0 km/h
269 24-03-2010 05:43:01 4.7 C 5.8 g/m*3 4.7 C 0 km/h
270 24-03-2010 05:55:01 4.5 C 5.72 g/m*3 4.5 C 0 km/h
271 24-03-2010 06:07:02 4.4 C 5.68 g/m*3 4.4 C 0 km/h
272 24-03-2010 06:19:01 4.4 C 5.68 g/m*3 4.4 C 0 km/h
273 24-03-2010 06:31:01 4.4 C 5.75 g/m*3 4.4 C 0 km/h
274 24-03-2010 06:43:01 4.3 C 5.71 g/m*3 4.3 C 0 km/h
275 24-03-2010 06:55:01 4.3 C 5.71 g/m*3 4.3 C 0 km/h
Sensor: Nr:Datum:Temp:Abs-Feuchte:Windchill:Wind:
Aussen-T/F 276 24-03-2010 07:07:01 4.4 C 5.81 g/m*3 4.4 C 0 km/h
277 24-03-2010 07:19:02 4.4 C 5.81 g/m*3 4.4 C 0 km/h
278 24-03-2010 07:31:01 4.6 C 5.89 g/m*3 4.6 C 0 km/h
279 24-03-2010 07:43:01 4.9 C 6.01 g/m*3 4.9 C 0 km/h
280 24-03-2010 07:55:03 5.2 C 6.06 g/m*3 5.2 C 0 km/h
281 24-03-2010 08:07:02 5.3 C 6.1 g/m*3 5.3 C 0 km/h
282 24-03-2010 08:19:02 5.4 C 6.07 g/m*3 5.4 C 0 km/h
283 24-03-2010 08:31:02 5.7 C 6.19 g/m*3 5.7 C 0 km/h
284 24-03-2010 08:43:02 5.7 C 6.12 g/m*3 5.7 C 0 km/h
285 24-03-2010 08:55:02 5.8 C 6.16 g/m*3 5.8 C 0 km/h
286 24-03-2010 09:07:01 6.1 C 6.21 g/m*3 6.1 C 0 km/h
287 24-03-2010 09:19:02 6.7 C 6.46 g/m*3 6.7 C 0 km/h
288 24-03-2010 09:31:01 7.2 C 6.44 g/m*3 7.2 C 0 km/h
289 24-03-2010 09:43:01 7.8 C 6.69 g/m*3 7.8 C 0 km/h
290 24-03-2010 09:55:02 8.4 C 6.53 g/m*3 8.4 C 0 km/h
291 24-03-2010 10:07:01 9.2 C 6.79 g/m*3 9.2 C 0 km/h
292 24-03-2010 10:19:01 10.2 C 6.95 g/m*3 10.2 C 0 km/h
293 24-03-2010 10:31:02 10.9 C 6.76 g/m*3 10.9 C 0 km/h
294 24-03-2010 10:43:02 11.7 C 6.48 g/m*3 11.7 C 0 km/h
295 24-03-2010 10:55:02 12.7 C 6.46 g/m*3 12.7 C 0 km/h
296 24-03-2010 11:07:01 13.1 C 5.71 g/m*3 13.1 C 0 km/h
297 24-03-2010 11:19:02 13.8 C 5.6 g/m*3 13.8 C 0 km/h
298 24-03-2010 11:31:02 14.4 C 5.44 g/m*3 14.4 C 0 km/h
299 24-03-2010 11:43:02 14.9 C 5.23 g/m*3 14.9 C 0 km/h
300 24-03-2010 11:55:02 15.5 C 5.29 g/m*3 15.5 C 0 km/h
Sensor: Nr:Datum:Temp:Abs-Feuchte:Windchill:Wind:
Aussen-T/F 301 24-03-2010 12:07:02 16.1 C 5.21 g/m*3 16.1 C 0 km/h
302 24-03-2010 12:19:02 16.7 C 5.26 g/m*3 16.7 C 0 km/h
303 24-03-2010 12:31:02 17.2 C 5.27 g/m*3 17.2 C 0 km/h
304 24-03-2010 12:43:02 17.6 C 5.1 g/m*3 17.6 C 0 km/h
305 24-03-2010 12:55:02 18.4 C 4.88 g/m*3 18.4 C 0 km/h
306 24-03-2010 13:07:03 18.7 C 4.8 g/m*3 18.7 C 0 km/h
307 24-03-2010 13:19:02 19 C 5.05 g/m*3 19 C 0 km/h
308 24-03-2010 13:31:02 19.5 C 5.2 g/m*3 19.5 C 0 km/h
309 24-03-2010 13:43:02 19.9 C 4.98 g/m*3 19.9 C 0 km/h
310 24-03-2010 13:55:01 20.3 C 4.75 g/m*3 20.3 C 0 km/h
311 24-03-2010 14:07:02 20.8 C 4.71 g/m*3 20.8 C 0 km/h
312 24-03-2010 14:19:01 21.6 C 4.74 g/m*3 21.6 C 0 km/h
313 24-03-2010 14:31:01 21.6 C 4.36 g/m*3 21.6 C 0 km/h
314 24-03-2010 14:43:01 21.5 C 4.34 g/m*3 21.5 C 0 km/h
315 24-03-2010 14:55:01 21.8 C 4.41 g/m*3 21.8 C 0 km/h
316 24-03-2010 15:07:02 22 C 4.27 g/m*3 22 C 0 km/h
317 24-03-2010 15:19:01 22 C 4.27 g/m*3 22 C 0 km/h
318 24-03-2010 15:31:01 22.3 C 4.34 g/m*3 22.3 C 0 km/h
319 24-03-2010 15:43:01 23 C 4.52 g/m*3 23 C 0 km/h
320 24-03-2010 15:55:01 21.9 C 4.44 g/m*3 21.9 C 0 km/h
321 24-03-2010 16:07:02 21.4 C 4.5 g/m*3 21.4 C 0 km/h
322 24-03-2010 16:19:02 21 C 4.58 g/m*3 21 C 0 km/h
323 24-03-2010 16:31:01 21.1 C 4.79 g/m*3 21.1 C 0 km/h
324 24-03-2010 16:43:01 20.3 C 4.92 g/m*3 20.3 C 0 km/h
325 24-03-2010 16:55:01 20.4 C 5.13 g/m*3 20.4 C 0 km/h
Sensor: Nr:Datum:Temp:Abs-Feuchte:Windchill:Wind:
Aussen-T/F 326 24-03-2010 17:07:01 20.4 C 5.31 g/m*3 20.4 C 0 km/h
327 24-03-2010 17:19:02 20 C 5.18 g/m*3 20 C 0 km/h
328 24-03-2010 17:31:01 19.8 C 5.47 g/m*3 19.8 C 0 km/h
329 24-03-2010 17:43:01 19.5 C 5.37 g/m*3 19.5 C 0 km/h
330 24-03-2010 17:55:02 19.1 C 5.08 g/m*3 19.1 C 0 km/h
331 24-03-2010 18:07:01 18.5 C 5.22 g/m*3 18.5 C 0 km/h
332 24-03-2010 18:19:02 17.9 C 5.65 g/m*3 17.9 C 0 km/h
333 24-03-2010 18:31:01 17.4 C 5.48 g/m*3 17.4 C 0 km/h
334 24-03-2010 18:43:01 16.5 C 5.62 g/m*3 16.5 C 0 km/h
335 24-03-2010 18:55:02 15.8 C 5.38 g/m*3 15.8 C 0 km/h
336 24-03-2010 19:07:02 15.4 C 5.52 g/m*3 15.4 C 0 km/h
337 24-03-2010 19:19:02 15 C 5.51 g/m*3 15 C 0 km/h
338 24-03-2010 19:31:03 14.5 C 5.6 g/m*3 14.5 C 0 km/h
339 24-03-2010 19:43:03 14.4 C 5.56 g/m*3 14.4 C 0 km/h
340 24-03-2010 19:55:02 14.2 C 5.49 g/m*3 14.2 C 0 km/h
341 24-03-2010 20:07:01 14 C 5.67 g/m*3 14 C 0 km/h
342 24-03-2010 20:19:02 14 C 5.55 g/m*3 14 C 0 km/h
343 24-03-2010 20:31:02 13.8 C 5.48 g/m*3 13.8 C 0 km/h
344 24-03-2010 20:43:02 13.8 C 5.6 g/m*3 13.8 C 0 km/h
345 24-03-2010 20:55:02 13.4 C 5.58 g/m*3 13.4 C 0 km/h
346 24-03-2010 21:07:01 13.4 C 5.58 g/m*3 13.4 C 0 km/h
347 24-03-2010 21:19:01 13.2 C 5.51 g/m*3 13.2 C 0 km/h
348 24-03-2010 21:31:02 13.1 C 5.59 g/m*3 13.1 C 0 km/h
349 24-03-2010 21:43:02 12.9 C 5.75 g/m*3 12.9 C 0 km/h
350 24-03-2010 21:55:02 12.8 C 5.71 g/m*3 12.8 C 0 km/h
Sensor: Nr:Datum:Temp:Abs-Feuchte:Windchill:Wind:
Aussen-T/F 351 24-03-2010 22:07:02 12.4 C 5.68 g/m*3 12.4 C 0 km/h
352 24-03-2010 22:19:02 12.7 C 5.68 g/m*3 12.7 C 0 km/h
353 24-03-2010 22:31:02 12.6 C 5.64 g/m*3 12.6 C 0 km/h
354 24-03-2010 22:43:02 12.4 C 5.68 g/m*3 12.4 C 0 km/h
355 24-03-2010 22:55:02 12 C 5.86 g/m*3 12 C 0 km/h
356 24-03-2010 23:07:02 11.7 C 6.07 g/m*3 11.7 C 0 km/h
357 24-03-2010 23:19:02 11.4 C 5.95 g/m*3 11.4 C 0 km/h
358 24-03-2010 23:31:02 10.9 C 6.07 g/m*3 10.9 C 0 km/h
359 24-03-2010 23:43:02 10.8 C 6.13 g/m*3 10.8 C 0 km/h
360 24-03-2010 23:55:02 10.6 C 6.15 g/m*3 10.6 C 0 km/h

Legende:
   Min
   Max


Maximal/Minimal-Werte vom 22.03.2010 - 24.03.2010

Sensor Min Max Avg
Temp
(Aussen-T/F)
2.1 °C
23-03-2010  05:54:04
23 °C
24-03-2010  15:43:01
10.23 °C
Abs-Feuchte
(Aussen-T/F)
4.27 g/m*3
24-03-2010  15:07:02
8.09 g/m*3
22-03-2010  08:17:02
6.07 g/m*3
Windchill
(Aussen-T/F)
2.1 C
23-03-2010  05:54:04
23 C
24-03-2010  15:43:01
10.2 C

Die Daten stammen von einer Davis Vantage Pro 2 Wetter-Station und werden unter Linux mit der Software wview2wettercgi und aufbereitet. Alle Angaben erfolgen ohne Gewähr für ihre Vollständigkeit oder Richtigkeit.
Kontakt: Rainer Krienke krienke@uni-koblenz.de . Meine Webseiten an der Uni Koblenz oder privat.
Version: $Revision: 0.78 $